createdAt,value
2023-03-11T09:08:48.946Z,96794.97
2023-03-11T09:11:18.903Z,96795.03
2023-03-11T09:13:45.962Z,96796.78
2023-03-11T09:16:15.426Z,96805.97
2023-03-11T09:18:43.147Z,96810.56
2023-03-11T09:21:11.040Z,96814.56
2023-03-11T09:23:43.600Z,96819.19
2023-03-11T09:26:12.288Z,96816.91
2023-03-11T09:28:40.865Z,96842.50
2023-03-11T09:31:08.025Z,96835.47
2023-03-11T09:33:42.644Z,96839.81
2023-03-11T09:36:14.027Z,96844.69
2023-03-11T09:38:41.947Z,96859.03
2023-03-11T09:41:16.904Z,96867.41
2023-03-11T09:43:56.005Z,96869.94
2023-03-11T09:46:48.010Z,96862.84
2023-03-11T09:49:42.789Z,96869.91
2023-03-11T09:52:15.313Z,96876.34
2023-03-11T09:54:47.058Z,96890.72
2023-03-11T09:57:25.358Z,96888.47
2023-03-11T09:59:52.740Z,96893.94
2023-03-11T10:02:22.859Z,96898.59
2023-03-11T10:05:04.378Z,96903.91
2023-03-11T10:07:42.884Z,96912.16
2023-03-11T10:10:17.808Z,96908.50
2023-03-11T10:13:00.377Z,96922.00
2023-03-11T10:15:54.104Z,96912.78
2023-03-11T10:19:01.041Z,96929.19
2023-03-11T10:21:46.146Z,96932.31
2023-03-11T10:24:34.790Z,96941.91
2023-03-11T10:27:08.773Z,96935.09
2023-03-11T10:30:05.180Z,96942.19
2023-03-11T10:32:50.835Z,96944.66
2023-03-11T10:35:22.295Z,96948.72
2023-03-11T10:38:15.770Z,96954.66
2023-03-11T10:40:45.296Z,96952.88
2023-03-11T10:43:16.230Z,96955.13
2023-03-11T10:45:45.933Z,96963.00
2023-03-11T10:48:18.233Z,96954.13
2023-03-11T10:51:12.457Z,96960.88
2023-03-11T10:53:48.641Z,96963.81
2023-03-11T10:56:36.039Z,96953.69
2023-03-11T10:59:06.200Z,96977.34
2023-03-11T11:01:34.215Z,96972.81
2023-03-11T11:04:02.262Z,96978.44
2023-03-11T11:06:36.805Z,96975.50
2023-03-11T11:09:20.477Z,96984.09
2023-03-11T11:12:05.290Z,96981.13
2023-03-11T11:14:52.000Z,96978.66
2023-03-11T11:17:34.253Z,96986.63
2023-03-11T11:20:13.284Z,96985.03
2023-03-11T11:22:52.817Z,96987.25
2023-03-11T11:25:33.088Z,96995.47
2023-03-11T11:28:02.893Z,96994.72
2023-03-11T11:30:30.217Z,96993.03
2023-03-11T11:33:14.776Z,96998.16
2023-03-11T11:35:53.176Z,96992.41
2023-03-11T11:38:24.605Z,96988.16
2023-03-11T11:40:53.701Z,96999.09
2023-03-11T11:43:32.666Z,97001.00
2023-03-11T11:46:06.551Z,96995.44
2023-03-11T11:49:11.345Z,97014.75
2023-03-11T11:51:44.726Z,97005.66
2023-03-11T11:54:36.641Z,96998.91
2023-03-11T11:57:16.942Z,97014.44
2023-03-11T11:59:44.569Z,97010.03
2023-03-11T12:02:27.113Z,97006.75
2023-03-11T12:05:03.502Z,97012.41
2023-03-11T12:07:46.726Z,97017.28
2023-03-11T12:10:36.321Z,97015.09
2023-03-11T12:13:34.440Z,97016.88
2023-03-11T12:16:04.588Z,97030.50
2023-03-11T12:19:12.211Z,97032.97
2023-03-11T12:21:56.010Z,97033.84
2023-03-11T12:24:47.923Z,97049.97
2023-03-11T12:27:33.121Z,97047.06
2023-03-11T12:30:16.211Z,97054.13
2023-03-11T12:32:58.125Z,97057.66
2023-03-11T12:35:28.768Z,97058.44
2023-03-11T12:38:05.193Z,97061.28
2023-03-11T12:41:00.288Z,97056.06
2023-03-11T12:43:36.582Z,97055.94
2023-03-11T12:46:10.907Z,97062.63
2023-03-11T12:48:44.559Z,97060.94
2023-03-11T12:51:27.494Z,97068.03
2023-03-11T12:53:56.478Z,97075.38
2023-03-11T12:56:30.701Z,97077.44
2023-03-11T12:59:12.730Z,97073.22
2023-03-11T13:01:59.242Z,97069.94
2023-03-11T13:05:04.865Z,97067.28
2023-03-11T13:07:41.753Z,97079.69
2023-03-11T13:10:20.548Z,97081.66
2023-03-11T13:12:48.803Z,97085.19
2023-03-11T13:15:19.355Z,97087.13
2023-03-11T13:18:15.129Z,97091.81
2023-03-11T13:20:42.150Z,97090.97
2023-03-11T13:23:12.381Z,97094.13
2023-03-11T13:25:44.147Z,97095.97
2023-03-11T13:28:32.282Z,97092.94
2023-03-11T13:31:04.386Z,97091.63
2023-03-11T13:33:43.096Z,97086.88
2023-03-11T13:36:19.451Z,97091.31
2023-03-11T13:39:09.041Z,97095.16
2023-03-11T13:41:42.747Z,97096.03
2023-03-11T13:44:35.427Z,97103.97
2023-03-11T13:47:16.939Z,97097.53
2023-03-11T13:50:06.288Z,97109.84
2023-03-11T13:52:37.108Z,97112.56
2023-03-11T13:55:30.939Z,97117.75
2023-03-11T13:57:58.343Z,97113.94
2023-03-11T14:00:28.647Z,97126.53
2023-03-11T14:03:02.791Z,97121.00
2023-03-11T14:05:46.216Z,97128.88
2023-03-11T14:08:24.160Z,97135.16
2023-03-11T14:10:56.913Z,97147.03
2023-03-11T14:13:26.159Z,97147.09
2023-03-11T14:15:56.874Z,97148.97
2023-03-11T14:18:33.491Z,97146.47
2023-03-11T14:21:02.695Z,97154.09
2023-03-11T14:23:49.012Z,97154.13
2023-03-11T14:26:32.121Z,97159.78
2023-03-11T14:29:07.358Z,97156.31
2023-03-11T14:31:38.048Z,97160.44
2023-03-11T14:34:15.003Z,97170.38
2023-03-11T14:36:45.177Z,97165.22
2023-03-11T14:39:23.509Z,97180.09
2023-03-11T14:41:53.341Z,97183.59
2023-03-11T14:44:22.805Z,97181.19
2023-03-11T14:46:51.835Z,97186.47
2023-03-11T14:49:23.809Z,97194.84
2023-03-11T14:51:58.985Z,97194.84
2023-03-11T14:54:31.144Z,97197.28
2023-03-11T14:57:23.865Z,97196.56
2023-03-11T14:59:52.566Z,97203.47
2023-03-11T15:02:43.810Z,97210.81
2023-03-11T15:05:48.884Z,97211.66
2023-03-11T15:08:22.753Z,97212.97
2023-03-11T15:11:19.830Z,97212.19
2023-03-11T15:13:52.490Z,97212.28
2023-03-11T15:16:29.629Z,97222.38
2023-03-11T15:18:57.539Z,97226.00
2023-03-11T15:21:25.364Z,97227.59
2023-03-11T15:24:02.046Z,97224.88
2023-03-11T15:26:33.752Z,97220.66
2023-03-11T15:29:06.609Z,97222.03
2023-03-11T15:31:38.729Z,97224.84
2023-03-11T15:34:19.303Z,97233.38
2023-03-11T15:36:49.610Z,97233.34
2023-03-11T15:39:21.752Z,97237.06
2023-03-11T15:42:07.685Z,97246.06
2023-03-11T15:44:41.396Z,97243.44
2023-03-11T15:47:17.899Z,97250.25
2023-03-11T15:49:45.591Z,97250.78
2023-03-11T15:52:13.965Z,97258.34
2023-03-11T15:54:41.033Z,97257.59
2023-03-11T15:57:21.605Z,97258.88
2023-03-11T15:59:48.794Z,97264.75
2023-03-11T16:02:22.708Z,97270.69
2023-03-11T16:04:50.939Z,97273.78
2023-03-11T16:07:21.798Z,97266.53
2023-03-11T16:09:56.571Z,97279.94
2023-03-11T16:12:25.073Z,97273.50
2023-03-11T16:14:51.852Z,97270.13
2023-03-11T16:17:19.438Z,97269.81
2023-03-11T16:19:49.223Z,97282.91
2023-03-11T16:22:24.768Z,97288.34
2023-03-11T16:24:54.800Z,97296.53
2023-03-11T16:27:21.634Z,97294.69
2023-03-11T16:29:48.268Z,97313.22
2023-03-11T16:32:15.254Z,97305.69
2023-03-11T16:34:42.520Z,97309.34
2023-03-11T16:37:15.549Z,97323.63
2023-03-11T16:39:42.679Z,97317.50
2023-03-11T16:42:09.968Z,97321.94
2023-03-11T16:44:39.110Z,97334.88
2023-03-11T16:47:06.054Z,97339.69
2023-03-11T16:49:34.063Z,97340.72
2023-03-11T16:52:04.024Z,97339.41
2023-03-11T16:54:31.090Z,97343.34
2023-03-11T16:56:58.563Z,97353.13
2023-03-11T16:59:26.283Z,97356.16
2023-03-11T17:01:53.161Z,97359.94
2023-03-11T17:04:20.161Z,97363.50
2023-03-11T17:06:46.919Z,97375.44
2023-03-11T17:09:14.007Z,97381.28
2023-03-11T17:11:41.083Z,97386.09
2023-03-11T17:14:16.400Z,97382.34
2023-03-11T17:16:45.493Z,97388.84
2023-03-11T17:19:13.468Z,97387.50
2023-03-11T17:21:40.641Z,97395.25
2023-03-11T17:24:08.496Z,97404.09
2023-03-11T17:26:38.535Z,97395.94
2023-03-11T17:29:05.701Z,97393.81
2023-03-11T17:31:33.022Z,97410.59
2023-03-11T17:34:00.201Z,97414.41
2023-03-11T17:36:27.700Z,97418.69
2023-03-11T17:38:54.704Z,97419.91
2023-03-11T17:41:23.721Z,97419.59
2023-03-11T17:43:51.604Z,97431.41
2023-03-11T17:46:20.336Z,97432.53
2023-03-11T17:48:49.298Z,97430.00
2023-03-11T17:51:22.541Z,97444.63
2023-03-11T17:53:50.286Z,97441.06
2023-03-11T17:56:18.977Z,97451.31
2023-03-11T17:58:46.888Z,97455.09
2023-03-11T18:01:17.124Z,97457.88
2023-03-11T18:03:44.203Z,97469.50
2023-03-11T18:06:12.485Z,97466.59
2023-03-11T18:08:39.529Z,97460.16
2023-03-11T18:11:18.805Z,97472.09
2023-03-11T18:13:46.327Z,97473.22
2023-03-11T18:16:14.915Z,97477.38
2023-03-11T18:18:43.923Z,97475.47
2023-03-11T18:21:14.645Z,97485.59
2023-03-11T18:23:42.612Z,97483.63
2023-03-11T18:26:11.996Z,97489.88
2023-03-11T18:28:39.512Z,97486.41
2023-03-11T18:31:18.436Z,97482.81
2023-03-11T18:33:49.735Z,97484.03
2023-03-11T18:36:18.491Z,97496.16
2023-03-11T18:38:46.808Z,97486.09
2023-03-11T18:41:13.985Z,97493.53
2023-03-11T18:43:41.294Z,97498.31
2023-03-11T18:46:11.882Z,97488.13
2023-03-11T18:48:39.220Z,97491.72
2023-03-11T18:51:08.631Z,97482.97
2023-03-11T18:53:36.286Z,97488.72
2023-03-11T18:56:10.094Z,97495.72
2023-03-11T18:58:36.961Z,97489.50
2023-03-11T19:01:14.240Z,97496.75
2023-03-11T19:03:43.369Z,97494.03
2023-03-11T19:06:12.327Z,97501.94
2023-03-11T19:08:39.925Z,97496.13
2023-03-11T19:11:12.805Z,97502.22
2023-03-11T19:13:46.930Z,97503.38
2023-03-11T19:16:17.132Z,97515.06
2023-03-11T19:18:44.437Z,97506.44
2023-03-11T19:21:13.068Z,97511.75
2023-03-11T19:23:40.079Z,97510.44
2023-03-11T19:26:08.226Z,97510.13
2023-03-11T19:28:35.720Z,97505.94
2023-03-11T19:31:03.714Z,97512.06
2023-03-11T19:33:31.033Z,97504.59
2023-03-11T19:36:00.188Z,97505.25
2023-03-11T19:38:28.734Z,97512.16
2023-03-11T19:41:03.385Z,97522.22
2023-03-11T19:43:30.886Z,97522.03
2023-03-11T19:46:00.435Z,97512.53
2023-03-11T19:48:28.125Z,97527.56
2023-03-11T19:50:55.863Z,97533.28
2023-03-11T19:53:23.670Z,97530.44
2023-03-11T19:55:53.859Z,97542.22
2023-03-11T19:58:23.945Z,97524.72
2023-03-11T20:00:54.635Z,97537.31
2023-03-11T20:03:22.714Z,97538.44
2023-03-11T20:05:56.020Z,97536.97
2023-03-11T20:08:25.609Z,97537.47
2023-03-11T20:10:53.454Z,97542.28
2023-03-11T20:13:21.939Z,97545.28
2023-03-11T20:15:49.911Z,97554.66
2023-03-11T20:18:18.335Z,97553.66
2023-03-11T20:20:45.889Z,97554.22
2023-03-11T20:23:13.793Z,97554.22
2023-03-11T20:25:41.800Z,97552.97
2023-03-11T20:28:09.446Z,97557.03
2023-03-11T20:30:38.837Z,97553.50
2023-03-11T20:33:07.708Z,97550.59
2023-03-11T20:35:34.971Z,97562.34
2023-03-11T20:38:03.258Z,97558.56
2023-03-11T20:40:30.394Z,97560.03
2023-03-11T20:42:59.393Z,97558.47
2023-03-11T20:45:26.618Z,97560.25
2023-03-11T20:47:54.179Z,97562.91
2023-03-11T20:50:22.334Z,97557.22
2023-03-11T20:52:49.953Z,97565.69
2023-03-11T20:55:17.323Z,97563.56
2023-03-11T20:57:44.915Z,97563.16
2023-03-11T21:00:12.762Z,97575.09
2023-03-11T21:02:42.329Z,97571.13
2023-03-11T21:05:10.061Z,97564.19
2023-03-11T21:07:37.289Z,97572.84
2023-03-11T21:10:07.758Z,97572.09
2023-03-11T21:12:35.744Z,97576.72
2023-03-11T21:15:03.917Z,97589.38
2023-03-11T21:17:31.011Z,97585.59
2023-03-11T21:19:58.078Z,97584.31
2023-03-11T21:22:25.306Z,97581.25
2023-03-11T21:24:54.365Z,97577.16
2023-03-11T21:27:26.506Z,97579.94
2023-03-11T21:29:57.289Z,97575.66
2023-03-11T21:32:26.763Z,97575.91
2023-03-11T21:34:59.494Z,97568.34
2023-03-11T21:37:28.825Z,97574.06
2023-03-11T21:39:56.262Z,97586.38
2023-03-11T21:42:23.503Z,97583.59
2023-03-11T21:44:51.574Z,97578.25
2023-03-11T21:47:19.510Z,97578.44
2023-03-11T21:49:46.996Z,97587.50
2023-03-11T21:52:13.920Z,97587.31
2023-03-11T21:54:41.060Z,97578.53
2023-03-11T21:57:08.207Z,97585.88
2023-03-11T21:59:35.087Z,97584.94
2023-03-11T22:02:03.262Z,97581.53
2023-03-11T22:04:31.583Z,97587.13
2023-03-11T22:06:59.120Z,97586.09
2023-03-11T22:09:27.087Z,97589.94
2023-03-11T22:11:56.279Z,97588.16
2023-03-11T22:14:24.236Z,97583.22
2023-03-11T22:16:51.546Z,97591.66
2023-03-11T22:19:18.676Z,97589.41
2023-03-11T22:21:46.248Z,97592.78
2023-03-11T22:24:13.276Z,97594.03
2023-03-11T22:26:40.107Z,97578.63
2023-03-11T22:29:09.021Z,97588.91
2023-03-11T22:31:36.198Z,97588.09
2023-03-11T22:34:03.097Z,97589.34
2023-03-11T22:36:30.442Z,97589.69
2023-03-11T22:38:57.542Z,97582.09
2023-03-11T22:41:24.468Z,97579.72
2023-03-11T22:43:51.172Z,97578.34
2023-03-11T22:46:17.980Z,97576.25
2023-03-11T22:48:46.404Z,97585.00
2023-03-11T22:51:13.198Z,97585.50
2023-03-11T22:53:40.177Z,97586.66
2023-03-11T22:56:09.565Z,97593.25
2023-03-11T22:58:36.432Z,97577.56
2023-03-11T23:01:06.981Z,97589.78
2023-03-11T23:03:34.954Z,97582.22
2023-03-11T23:06:04.973Z,97586.47
2023-03-11T23:08:31.781Z,97578.63
2023-03-11T23:11:03.257Z,97586.38
2023-03-11T23:13:31.182Z,97591.44
2023-03-11T23:16:09.449Z,97597.16
2023-03-11T23:18:36.957Z,97603.31
2023-03-11T23:21:04.083Z,97601.72
2023-03-11T23:23:32.628Z,97608.56
2023-03-11T23:26:00.092Z,97627.22
2023-03-11T23:28:26.995Z,97626.88
2023-03-11T23:30:53.902Z,97623.31
2023-03-11T23:33:20.705Z,97622.63
2023-03-11T23:35:47.479Z,97621.81
2023-03-11T23:38:14.504Z,97610.00
2023-03-11T23:40:41.676Z,97610.44
2023-03-11T23:43:08.484Z,97604.63
2023-03-11T23:45:35.569Z,97604.44
2023-03-11T23:48:02.515Z,97602.97
2023-03-11T23:50:29.263Z,97609.16
2023-03-11T23:52:56.028Z,97607.47
2023-03-11T23:55:23.112Z,97608.97
2023-03-11T23:57:52.528Z,97606.28
